Time;durP1;ratioP1;P1;durP2;ratioP2;P2;SDS_P1;SDS_P2;PMS_P1;PMS_P2;Temp;Humidity;BMP_temperature;BMP_pressure;BME280_temperature;BME280_humidity;BME280_pressure;Samples;Min_cycle;Max_cycle;Signal;HPM_P1;HPM_P2
2022/11/14 00:02:35;;;;;;;28.10;16.50;;;3.50;99.90;;;;;;5007676;28;20091;-85
2022/11/14 00:05:20;;;;;;;32.58;17.17;;;3.60;99.90;;;;;;5017960;28;20088;-86
2022/11/14 00:08:05;;;;;;;28.65;16.35;;;3.60;99.90;;;;;;5034793;28;20065;-85
2022/11/14 00:10:50;;;;;;;32.00;16.70;;;3.60;99.90;;;;;;5007613;28;20100;-85
2022/11/14 00:13:35;;;;;;;30.88;16.80;;;3.60;99.90;;;;;;5012164;28;20544;-85
2022/11/14 00:16:20;;;;;;;27.60;15.77;;;3.50;99.90;;;;;;5036091;28;20044;-84
2022/11/14 00:19:04;;;;;;;28.23;15.00;;;3.50;99.90;;;;;;5006359;28;20142;-85
2022/11/14 00:21:48;;;;;;;28.27;16.02;;;3.50;99.90;;;;;;5033460;28;20539;-84
2022/11/14 00:24:32;;;;;;;25.90;15.77;;;3.40;99.90;;;;;;5026227;28;20074;-85
2022/11/14 00:27:17;;;;;;;27.10;14.93;;;3.40;99.90;;;;;;5007256;28;20068;-85
2022/11/14 00:30:01;;;;;;;28.42;15.98;;;3.40;99.90;;;;;;4997191;28;20090;-84
2022/11/14 00:32:46;;;;;;;28.20;16.00;;;3.40;99.90;;;;;;5020033;28;20113;-85
2022/11/14 00:35:30;;;;;;;29.60;16.10;;;3.40;99.90;;;;;;5020730;28;20051;-85
2022/11/14 00:38:15;;;;;;;31.73;17.05;;;3.50;99.90;;;;;;5006015;28;20076;-85
2022/11/14 00:40:59;;;;;;;30.95;17.58;;;3.50;99.90;;;;;;5032787;28;20071;-86
2022/11/14 00:43:44;;;;;;;31.85;17.30;;;3.40;99.90;;;;;;5026641;28;20668;-85
2022/11/14 00:46:28;;;;;;;30.40;17.00;;;3.50;99.90;;;;;;5014752;28;20538;-85
2022/11/14 00:49:13;;;;;;;30.10;17.02;;;3.60;99.90;;;;;;5015189;28;20039;-85
2022/11/14 00:51:58;;;;;;;32.03;17.17;;;3.70;99.90;;;;;;5031311;28;20047;-85
2022/11/14 00:54:42;;;;;;;30.10;16.85;;;3.80;99.90;;;;;;5028469;28;20798;-85
2022/11/14 00:57:26;;;;;;;33.53;18.10;;;3.80;99.90;;;;;;5001251;28;20125;-86
2022/11/14 01:00:12;;;;;;;32.42;17.10;;;3.90;99.90;;;;;;5012196;28;20068;-85
2022/11/14 01:02:57;;;;;;;28.73;16.40;;;3.90;99.90;;;;;;5020021;28;20064;-85
2022/11/14 01:05:49;;;;;;;27.33;16.58;;;3.90;99.90;;;;;;5018523;28;20525;-86
2022/11/14 01:08:33;;;;;;;29.08;16.80;;;3.90;99.90;;;;;;5008480;28;20052;-85
2022/11/14 01:11:21;;;;;;;27.33;16.20;;;4.00;99.90;;;;;;5039560;28;20091;-85
2022/11/14 01:14:06;;;;;;;28.55;17.05;;;4.00;99.90;;;;;;5011111;28;20045;-85
2022/11/14 01:16:50;;;;;;;28.65;16.95;;;4.00;99.90;;;;;;5025490;28;20043;-87
2022/11/14 01:19:35;;;;;;;28.60;16.42;;;4.10;99.90;;;;;;5034138;28;20048;-85
2022/11/14 01:22:19;;;;;;;29.88;16.13;;;4.00;99.90;;;;;;5030986;28;20663;-86
2022/11/14 01:25:04;;;;;;;30.65;16.48;;;4.10;99.90;;;;;;5019921;28;20044;-85
2022/11/14 01:27:48;;;;;;;30.23;17.33;;;4.20;99.90;;;;;;5020666;28;20740;-85
2022/11/14 01:30:32;;;;;;;28.45;15.57;;;4.20;99.90;;;;;;5021354;28;20121;-85
2022/11/14 01:33:17;;;;;;;32.22;17.55;;;4.10;99.90;;;;;;5037198;28;20147;-84
2022/11/14 01:36:05;;;;;;;30.70;17.08;;;4.10;99.90;;;;;;5020013;28;20501;-85
2022/11/14 01:38:53;;;;;;;32.80;16.83;;;4.30;99.90;;;;;;5040670;28;20039;-87
2022/11/14 01:41:38;;;;;;;29.50;16.88;;;4.40;99.90;;;;;;5018317;28;20095;-86
2022/11/14 01:44:58;;;;;;;27.67;15.88;;;4.70;99.90;;;;;;5021041;28;20051;-85
2022/11/14 01:47:42;;;;;;;29.85;16.15;;;4.80;99.90;;;;;;4980692;28;20045;-85
2022/11/14 01:50:27;;;;;;;28.20;16.13;;;4.90;99.90;;;;;;5010739;28;20068;-86
2022/11/14 01:53:12;;;;;;;29.48;16.75;;;5.00;99.90;;;;;;5026457;28;20060;-85
2022/11/14 01:56:01;;;;;;;29.50;15.75;;;5.10;99.90;;;;;;5007169;28;20099;-85
2022/11/14 01:58:52;;;;;;;30.38;15.85;;;5.20;99.90;;;;;;5040941;28;20464;-84
2022/11/14 02:01:44;;;;;;;27.50;16.30;;;5.30;99.90;;;;;;5028188;28;20599;-85
2022/11/14 02:04:33;;;;;;;27.13;15.93;;;5.30;99.90;;;;;;5037276;28;20124;-85
2022/11/14 02:07:18;;;;;;;25.10;15.57;;;5.40;99.90;;;;;;5029100;28;20512;-85
2022/11/14 02:10:09;;;;;;;30.88;15.93;;;5.40;99.90;;;;;;5033131;28;20056;-85
2022/11/14 02:12:54;;;;;;;28.92;16.27;;;5.40;99.90;;;;;;5019585;28;20049;-86
2022/11/14 02:15:39;;;;;;;26.25;15.52;;;5.40;99.90;;;;;;5021820;28;20068;-85
2022/11/14 02:18:23;;;;;;;26.60;15.18;;;5.50;99.90;;;;;;5036609;28;20100;-85
2022/11/14 02:21:07;;;;;;;27.40;16.17;;;5.50;99.90;;;;;;5019695;28;20099;-84
2022/11/14 02:23:52;;;;;;;24.70;14.23;;;5.50;99.90;;;;;;5025397;28;20051;-85
2022/11/14 02:26:37;;;;;;;27.48;15.15;;;5.50;99.90;;;;;;5025841;28;20090;-85
2022/11/14 02:29:22;;;;;;;23.77;14.97;;;5.40;99.90;;;;;;5022271;28;20056;-85
2022/11/14 02:32:06;;;;;;;23.77;14.23;;;5.50;99.90;;;;;;5039372;28;20064;-85
2022/11/14 02:34:51;;;;;;;24.13;14.75;;;5.50;99.90;;;;;;5042642;28;20048;-85
2022/11/14 02:37:35;;;;;;;24.35;14.32;;;5.50;99.90;;;;;;5023319;28;20121;-85
2022/11/14 02:40:20;;;;;;;24.58;14.77;;;5.60;99.90;;;;;;5010863;28;20807;-84
2022/11/14 02:43:04;;;;;;;25.23;14.38;;;5.60;99.90;;;;;;5029041;28;20417;-85
2022/11/14 02:45:49;;;;;;;24.85;14.63;;;5.60;99.90;;;;;;5037052;28;20107;-84
2022/11/14 02:48:33;;;;;;;24.52;14.55;;;5.60;99.90;;;;;;5009489;28;20521;-85
2022/11/14 02:51:18;;;;;;;25.52;15.65;;;5.50;99.90;;;;;;5023929;28;20489;-86
2022/11/14 02:54:02;;;;;;;22.90;13.70;;;5.50;99.90;;;;;;5016068;28;20040;-84
2022/11/14 02:56:47;;;;;;;25.35;14.30;;;5.50;99.90;;;;;;5028730;28;20044;-84
2022/11/14 02:59:31;;;;;;;24.73;14.15;;;5.50;99.90;;;;;;5009758;28;20096;-84
2022/11/14 03:02:16;;;;;;;26.00;14.98;;;5.50;99.90;;;;;;5055353;28;20051;-85
2022/11/14 03:05:01;;;;;;;25.92;14.48;;;5.50;99.90;;;;;;5029019;28;20048;-83
2022/11/14 03:07:45;;;;;;;25.92;14.48;;;5.50;99.90;;;;;;5026413;28;20462;-85
2022/11/14 03:10:29;;;;;;;24.92;14.32;;;5.50;99.90;;;;;;5036764;28;20568;-85
2022/11/14 03:13:14;;;;;;;24.73;14.25;;;5.50;99.90;;;;;;5014210;28;20095;-85
2022/11/14 03:16:05;;;;;;;26.38;15.70;;;5.50;99.90;;;;;;5015489;28;20091;-86
2022/11/14 03:18:49;;;;;;;24.90;14.57;;;5.50;99.90;;;;;;5031991;28;20446;-85
2022/11/14 03:21:34;;;;;;;25.52;14.30;;;5.50;99.90;;;;;;5051572;28;20516;-84
2022/11/14 03:24:18;;;;;;;22.08;13.70;;;5.50;99.90;;;;;;5035873;28;20044;-84
2022/11/14 03:27:03;;;;;;;24.67;15.18;;;5.50;99.90;;;;;;5009560;28;20047;-84
2022/11/14 03:29:48;;;;;;;24.85;14.38;;;5.50;99.90;;;;;;5035573;28;20483;-85
2022/11/14 03:32:32;;;;;;;25.87;15.60;;;5.50;99.90;;;;;;5016097;28;20071;-85
2022/11/14 03:35:17;;;;;;;25.10;14.27;;;5.50;99.90;;;;;;5040272;28;20090;-85
2022/11/14 03:38:01;;;;;;;24.85;13.93;;;5.50;99.90;;;;;;5008084;28;20056;-85
2022/11/14 03:40:45;;;;;;;25.15;14.25;;;5.60;99.90;;;;;;5041264;28;20052;-84
2022/11/14 03:43:32;;;;;;;25.08;14.43;;;5.60;99.90;;;;;;5023691;28;20500;-86
2022/11/14 03:46:17;;;;;;;23.55;14.05;;;5.60;99.90;;;;;;5046468;28;20048;-84
2022/11/14 03:49:01;;;;;;;25.63;14.77;;;5.60;99.90;;;;;;5022160;28;20109;-85
2022/11/14 03:51:45;;;;;;;22.58;14.32;;;5.60;99.90;;;;;;5026925;28;20365;-85
2022/11/14 03:54:30;;;;;;;24.90;15.02;;;5.70;99.90;;;;;;5037615;28;20071;-86
2022/11/14 03:57:15;;;;;;;25.15;14.35;;;5.60;99.90;;;;;;5022208;28;20052;-86
2022/11/14 03:59:59;;;;;;;23.42;13.57;;;5.60;99.90;;;;;;5034602;28;20060;-85
2022/11/14 04:02:44;;;;;;;25.70;14.70;;;5.60;99.90;;;;;;5040164;28;20113;-84
2022/11/14 04:05:28;;;;;;;27.45;14.85;;;5.60;99.90;;;;;;5026088;28;20124;-85
2022/11/14 04:08:13;;;;;;;24.33;14.30;;;5.60;99.90;;;;;;5025830;28;20039;-86
2022/11/14 04:10:58;;;;;;;24.60;14.43;;;5.70;99.90;;;;;;5022145;28;20168;-85
2022/11/14 04:13:43;;;;;;;22.15;13.60;;;5.70;99.90;;;;;;5003947;28;20122;-86
2022/11/14 04:16:28;;;;;;;24.55;14.85;;;5.70;99.90;;;;;;5010145;28;20057;-84
2022/11/14 04:19:12;;;;;;;23.33;13.73;;;5.70;99.90;;;;;;5013070;28;20095;-84
2022/11/14 04:21:57;;;;;;;23.13;13.55;;;5.60;99.90;;;;;;5018204;28;20053;-84
2022/11/14 04:24:42;;;;;;;25.83;14.73;;;5.70;99.90;;;;;;5035387;28;20059;-85
2022/11/14 04:27:27;;;;;;;26.38;14.70;;;5.70;99.90;;;;;;5020081;28;20101;-84
2022/11/14 04:30:11;;;;;;;24.23;13.57;;;5.70;99.90;;;;;;5036461;28;20077;-85
2022/11/14 04:32:55;;;;;;;26.58;14.07;;;5.70;99.90;;;;;;5020680;28;20047;-84
2022/11/14 04:35:40;;;;;;;24.05;13.98;;;5.70;99.90;;;;;;5025837;28;20063;-86
2022/11/14 04:38:25;;;;;;;22.30;14.00;;;5.70;99.90;;;;;;5026962;28;20044;-84
2022/11/14 04:41:09;;;;;;;25.55;14.65;;;5.70;99.90;;;;;;5039108;28;20083;-85
2022/11/14 04:43:54;;;;;;;27.30;14.60;;;5.70;99.90;;;;;;5025381;28;20523;-85
2022/11/14 04:46:38;;;;;;;24.10;14.07;;;5.70;99.90;;;;;;5025230;28;20071;-86
2022/11/14 04:49:23;;;;;;;21.90;12.77;;;5.70;99.90;;;;;;5023122;28;20118;-85
2022/11/14 04:52:07;;;;;;;25.40;13.50;;;5.70;99.90;;;;;;5003607;28;20040;-86
2022/11/14 04:54:52;;;;;;;24.70;14.18;;;5.70;99.90;;;;;;5018724;28;20052;-85
2022/11/14 04:57:36;;;;;;;24.20;14.55;;;5.70;99.90;;;;;;5016022;28;20110;-86
2022/11/14 05:00:21;;;;;;;24.83;14.20;;;5.60;99.90;;;;;;5015279;28;20520;-85
2022/11/14 05:03:05;;;;;;;22.93;14.13;;;5.60;99.90;;;;;;5015390;28;20093;-86
2022/11/14 05:05:50;;;;;;;23.98;14.20;;;5.70;99.90;;;;;;5017522;28;20079;-86
2022/11/14 05:08:34;;;;;;;24.65;13.63;;;5.70;99.90;;;;;;5012971;28;20110;-85
2022/11/14 05:11:19;;;;;;;28.45;13.75;;;5.70;99.90;;;;;;5024095;28;20118;-85
2022/11/14 05:14:04;;;;;;;23.58;14.60;;;5.70;99.90;;;;;;5005294;28;20091;-86
2022/11/14 05:16:48;;;;;;;26.02;13.82;;;5.70;99.90;;;;;;5018494;28;20072;-85
2022/11/14 05:19:33;;;;;;;26.80;13.75;;;5.70;99.90;;;;;;5021289;28;20052;-85
2022/11/14 05:22:18;;;;;;;25.83;14.63;;;5.70;99.90;;;;;;5014659;28;20101;-86
2022/11/14 05:25:02;;;;;;;26.98;13.85;;;5.70;99.90;;;;;;5029127;28;20067;-85
2022/11/14 05:27:47;;;;;;;23.63;13.75;;;5.70;99.90;;;;;;5021797;28;20559;-85
2022/11/14 05:30:31;;;;;;;24.48;13.60;;;5.70;99.90;;;;;;5034052;28;20661;-85
2022/11/14 05:33:16;;;;;;;22.58;13.32;;;5.70;99.90;;;;;;5034278;28;20146;-86
2022/11/14 05:36:05;;;;;;;22.48;13.20;;;5.80;99.90;;;;;;5017093;28;20056;-86
2022/11/14 05:38:49;;;;;;;23.45;13.40;;;5.70;99.90;;;;;;5014713;28;20063;-84
2022/11/14 05:41:34;;;;;;;23.65;13.75;;;5.70;99.90;;;;;;5034417;28;20075;-84
2022/11/14 05:44:18;;;;;;;24.25;13.75;;;5.60;99.90;;;;;;5009055;28;20044;-85
2022/11/14 05:47:03;;;;;;;24.27;13.75;;;5.60;99.90;;;;;;5022766;28;20091;-86
2022/11/14 05:49:47;;;;;;;21.88;13.40;;;5.60;99.90;;;;;;5011859;28;20044;-84
2022/11/14 05:52:31;;;;;;;25.25;13.65;;;5.60;99.90;;;;;;5004493;28;20063;-86
2022/11/14 05:55:16;;;;;;;22.35;13.30;;;5.50;99.90;;;;;;5020127;28;20508;-85
2022/11/14 05:58:00;;;;;;;27.23;13.85;;;5.50;99.90;;;;;;5023273;28;20095;-85
2022/11/14 06:00:44;;;;;;;23.45;13.55;;;5.50;99.90;;;;;;5009577;28;20044;-85
2022/11/14 06:03:34;;;;;;;26.08;13.52;;;5.50;99.90;;;;;;5035517;28;20480;-85
2022/11/14 06:06:20;;;;;;;22.88;14.00;;;5.50;99.90;;;;;;5024427;28;20696;-84
2022/11/14 06:09:04;;;;;;;24.00;14.07;;;5.50;99.90;;;;;;5023833;28;20043;-84
2022/11/14 06:11:49;;;;;;;24.73;13.98;;;5.50;99.90;;;;;;5036022;28;20071;-84
2022/11/14 06:14:33;;;;;;;23.85;14.23;;;5.40;99.90;;;;;;5040225;28;20060;-84
2022/11/14 06:17:18;;;;;;;24.80;13.88;;;5.40;99.90;;;;;;5034734;28;20048;-83
2022/11/14 06:20:03;;;;;;;26.48;14.55;;;5.40;99.90;;;;;;5010457;28;20123;-85
2022/11/14 06:22:48;;;;;;;24.13;14.85;;;5.40;99.90;;;;;;5028097;28;20048;-85
2022/11/14 06:25:32;;;;;;;25.38;13.30;;;5.40;99.90;;;;;;5006684;28;20369;-86
2022/11/14 06:28:17;;;;;;;23.83;13.77;;;5.40;99.90;;;;;;5037912;28;20179;-85
2022/11/14 06:31:03;;;;;;;22.98;14.10;;;5.30;99.90;;;;;;5014336;28;20123;-86
2022/11/14 06:33:48;;;;;;;24.88;13.55;;;5.30;99.90;;;;;;5020093;28;20102;-85
2022/11/14 06:36:32;;;;;;;25.08;14.80;;;5.30;99.90;;;;;;5034046;28;20064;-84
2022/11/14 06:39:16;;;;;;;23.90;13.95;;;5.20;99.90;;;;;;5035697;28;20048;-86
2022/11/14 06:42:01;;;;;;;25.40;14.30;;;5.20;99.90;;;;;;5015906;28;20463;-86
2022/11/14 06:44:45;;;;;;;24.45;14.13;;;5.20;99.90;;;;;;5038086;28;20146;-84
2022/11/14 06:47:30;;;;;;;27.98;15.80;;;5.20;99.90;;;;;;5022731;28;20091;-84
2022/11/14 06:50:14;;;;;;;25.98;14.65;;;5.20;99.90;;;;;;5032042;28;20178;-85
2022/11/14 06:53:02;;;;;;;24.65;15.18;;;5.20;99.90;;;;;;5033139;28;20122;-82
2022/11/14 06:56:13;;;;;;;24.30;14.13;;;5.20;99.90;;;;;;5033155;28;20044;-83
2022/11/14 06:58:58;;;;;;;24.15;15.02;;;5.20;99.90;;;;;;5043532;28;20044;-83
2022/11/14 07:01:42;;;;;;;23.10;14.05;;;5.10;99.90;;;;;;5004155;28;20152;-84
2022/11/14 07:04:26;;;;;;;22.02;13.65;;;5.10;99.90;;;;;;4997680;28;20587;-84
2022/11/14 07:07:11;;;;;;;20.27;12.40;;;5.00;99.90;;;;;;5019346;28;20556;-84
2022/11/14 07:09:57;;;;;;;22.73;13.70;;;4.90;99.90;;;;;;5026548;28;20040;-84
2022/11/14 07:12:42;;;;;;;25.90;14.40;;;4.90;99.90;;;;;;5003678;28;20080;-83
2022/11/14 07:15:26;;;;;;;23.95;14.30;;;4.90;99.90;;;;;;5032457;28;20099;-84
2022/11/14 07:18:11;;;;;;;23.48;14.65;;;5.00;99.90;;;;;;5034053;28;20759;-84
2022/11/14 07:21:00;;;;;;;25.65;13.50;;;5.10;99.90;;;;;;5044173;28;20076;-83
2022/11/14 07:23:45;;;;;;;23.38;13.90;;;5.20;99.90;;;;;;5032921;28;20043;-84
2022/11/14 07:26:29;;;;;;;23.38;14.13;;;5.20;99.90;;;;;;5015024;28;20047;-84
2022/11/14 07:29:14;;;;;;;20.48;13.05;;;5.30;99.90;;;;;;5023101;28;20441;-86
2022/11/14 07:31:59;;;;;;;22.30;13.10;;;5.30;99.90;;;;;;5015282;28;20091;-84
2022/11/14 07:34:43;;;;;;;24.15;13.88;;;5.40;99.90;;;;;;5006913;28;20043;-85
2022/11/14 07:37:27;;;;;;;23.42;13.68;;;5.40;99.90;;;;;;5043059;28;20167;-84
2022/11/14 07:40:11;;;;;;;22.85;13.52;;;5.50;99.90;;;;;;5014358;28;20090;-86
2022/11/14 07:42:59;;;;;;;20.45;12.57;;;5.50;99.90;;;;;;5014560;28;20123;-83
2022/11/14 07:45:44;;;;;;;19.63;12.18;;;5.60;99.90;;;;;;5030344;28;20041;-84
2022/11/14 07:48:29;;;;;;;22.10;13.57;;;5.60;99.90;;;;;;5007168;28;20056;-86
2022/11/14 07:51:16;;;;;;;22.20;12.65;;;5.60;99.90;;;;;;5011632;28;20072;-83
2022/11/14 07:54:01;;;;;;;24.35;12.75;;;5.70;99.90;;;;;;5022408;28;20436;-85
2022/11/14 07:56:45;;;;;;;24.08;13.93;;;5.80;99.90;;;;;;5022534;28;20114;-83
2022/11/14 07:59:30;;;;;;;24.77;14.10;;;5.90;99.90;;;;;;5048495;28;20076;-83
2022/11/14 08:02:14;;;;;;;21.20;13.27;;;6.00;99.90;;;;;;5023854;28;20047;-84
2022/11/14 08:05:00;;;;;;;19.98;13.00;;;6.10;99.90;;;;;;5029924;28;20172;-85
2022/11/14 08:07:49;;;;;;;20.90;13.05;;;6.10;99.90;;;;;;5006289;28;20482;-84
2022/11/14 08:10:33;;;;;;;23.20;13.65;;;6.20;99.90;;;;;;5016865;28;20819;-83
2022/11/14 08:13:17;;;;;;;20.60;12.63;;;6.40;99.90;;;;;;5016010;28;20122;-83
2022/11/14 08:16:07;;;;;;;20.20;12.43;;;6.40;99.90;;;;;;5035964;28;20048;-85
2022/11/14 08:18:51;;;;;;;17.35;11.68;;;6.50;99.90;;;;;;5031922;28;20052;-83
2022/11/14 08:21:36;;;;;;;18.65;12.15;;;6.50;99.90;;;;;;5035172;28;20111;-85
2022/11/14 08:24:20;;;;;;;19.45;12.60;;;6.60;99.90;;;;;;5016230;28;20056;-83
2022/11/14 08:27:04;;;;;;;21.08;12.60;;;6.60;99.90;;;;;;5007221;28;20110;-84
2022/11/14 08:29:53;;;;;;;20.50;12.20;;;6.70;99.90;;;;;;5010807;28;20473;-86
2022/11/14 08:32:38;;;;;;;21.70;12.70;;;6.80;99.90;;;;;;5049094;28;20099;-85
2022/11/14 08:35:23;;;;;;;22.58;12.93;;;6.90;99.90;;;;;;5029845;28;20189;-86
2022/11/14 08:38:08;;;;;;;18.83;11.27;;;6.90;99.90;;;;;;5007024;28;20044;-86
2022/11/14 08:41:10;;;;;;;20.05;12.52;;;7.00;99.90;;;;;;5005926;28;20493;-87
2022/11/14 08:43:54;;;;;;;20.45;11.73;;;7.00;99.90;;;;;;5025993;28;20084;-85
2022/11/14 08:46:40;;;;;;;21.20;11.90;;;7.10;99.90;;;;;;5008628;28;20096;-86
2022/11/14 08:49:24;;;;;;;22.98;12.48;;;7.20;99.90;;;;;;5021842;28;20106;-85
2022/11/14 08:52:09;;;;;;;17.98;11.10;;;7.30;99.90;;;;;;5020706;28;20179;-85
2022/11/14 08:54:53;;;;;;;17.23;10.57;;;7.40;99.90;;;;;;5031722;28;20124;-85
2022/11/14 08:57:38;;;;;;;16.27;10.35;;;7.40;99.90;;;;;;5031630;28;21425;-86
2022/11/14 09:00:22;;;;;;;19.90;11.45;;;7.60;99.90;;;;;;5022079;28;20113;-84
2022/11/14 09:03:09;;;;;;;16.88;11.00;;;7.60;99.90;;;;;;5034996;28;20043;-85
2022/11/14 09:05:53;;;;;;;15.60;10.55;;;7.70;99.90;;;;;;5029059;28;20053;-86
2022/11/14 09:08:37;;;;;;;17.17;10.27;;;7.80;99.90;;;;;;5033644;28;20098;-86
2022/11/14 09:11:22;;;;;;;18.63;10.95;;;7.80;99.90;;;;;;5017933;28;20061;-88
2022/11/14 09:14:06;;;;;;;17.08;10.73;;;7.90;99.90;;;;;;5021475;28;20137;-86
2022/11/14 09:16:51;;;;;;;15.02;9.70;;;7.90;99.90;;;;;;5013143;28;20036;-87
2022/11/14 09:19:35;;;;;;;17.35;10.82;;;8.00;99.90;;;;;;5027971;28;20081;-86
2022/11/14 09:22:20;;;;;;;18.35;10.88;;;8.10;99.90;;;;;;5006939;28;20110;-85
2022/11/14 09:25:05;;;;;;;16.48;10.05;;;8.20;99.90;;;;;;5037323;28;20044;-85
2022/11/14 09:27:49;;;;;;;15.82;9.93;;;8.30;99.90;;;;;;5017562;28;20048;-87
2022/11/14 09:30:35;;;;;;;16.08;9.77;;;8.30;99.90;;;;;;5016879;28;20086;-84
2022/11/14 09:33:20;;;;;;;17.48;10.73;;;8.30;99.90;;;;;;5030488;28;20044;-86
2022/11/14 09:36:07;;;;;;;14.60;9.98;;;8.40;99.90;;;;;;5002579;28;20553;-85
2022/11/14 09:38:51;;;;;;;15.55;9.68;;;8.50;99.90;;;;;;4997201;28;20128;-87
2022/11/14 09:41:51;;;;;;;14.90;10.05;;;8.50;99.90;;;;;;5016800;28;20096;-87
2022/11/14 09:44:39;;;;;;;15.73;9.80;;;8.60;99.90;;;;;;5029397;28;20413;-86
2022/11/14 09:47:37;;;;;;;15.07;9.13;;;8.60;99.90;;;;;;5038010;28;20102;-85
2022/11/14 09:50:26;;;;;;;14.63;9.30;;;8.70;99.90;;;;;;5027974;28;20409;-85
2022/11/14 09:53:21;;;;;;;13.93;9.18;;;8.80;99.90;;;;;;5032032;28;20698;-87
2022/11/14 09:56:11;;;;;;;15.23;9.95;;;8.90;99.90;;;;;;5029338;28;20048;-86
2022/11/14 09:58:55;;;;;;;17.33;10.40;;;9.00;99.90;;;;;;5000890;28;20125;-85
2022/11/14 10:01:59;;;;;;;14.50;9.32;;;9.00;99.90;;;;;;4998935;28;20072;-84
2022/11/14 10:04:58;;;;;;;14.25;9.35;;;9.00;99.90;;;;;;5020948;28;20040;-86
2022/11/14 10:08:03;;;;;;;15.52;10.02;;;9.10;99.90;;;;;;5021575;28;20617;-85
2022/11/14 10:10:54;;;;;;;14.07;8.98;;;9.10;99.90;;;;;;5017452;28;20075;-88
2022/11/14 10:13:47;;;;;;;14.25;9.48;;;9.20;99.90;;;;;;5011093;28;20409;-86
2022/11/14 10:16:47;;;;;;;13.20;9.00;;;9.20;99.90;;;;;;5028668;28;20341;-85
2022/11/14 10:19:53;;;;;;;12.25;8.57;;;9.30;99.90;;;;;;5018954;28;20064;-86
2022/11/14 10:23:25;;;;;;;15.18;9.10;;;9.30;99.90;;;;;;5027508;28;20544;-86
2022/11/14 10:26:18;;;;;;;15.23;9.05;;;9.40;99.90;;;;;;5024991;28;20039;-87
2022/11/14 10:29:37;;;;;;;12.63;8.95;;;9.40;99.90;;;;;;5020040;28;20039;-85
2022/11/14 10:32:44;;;;;;;13.30;8.68;;;9.50;99.90;;;;;;5031238;28;20064;-85
2022/11/14 10:35:42;;;;;;;14.60;8.55;;;9.60;99.90;;;;;;5021951;28;20156;-86
2022/11/14 10:38:57;;;;;;;12.10;8.75;;;9.70;99.90;;;;;;5015335;28;20068;-85
2022/11/14 10:41:43;;;;;;;14.95;9.43;;;9.70;99.90;;;;;;5016440;28;20738;-86
2022/11/14 10:44:54;;;;;;;12.98;9.48;;;9.80;99.90;;;;;;5003995;28;20045;-85
2022/11/14 10:48:13;;;;;;;12.15;8.35;;;9.90;99.90;;;;;;4982741;28;20044;-85
2022/11/14 10:51:26;;;;;;;12.23;8.73;;;9.90;99.90;;;;;;5018129;28;20075;-86
2022/11/14 10:54:21;;;;;;;11.70;7.82;;;10.00;99.90;;;;;;5020039;28;20159;-84
2022/11/14 10:57:14;;;;;;;9.98;7.70;;;10.10;99.90;;;;;;5020885;28;20131;-83
2022/11/14 10:59:58;;;;;;;13.13;8.50;;;10.10;99.90;;;;;;5014421;28;20213;-85
2022/11/14 11:02:50;;;;;;;14.48;8.13;;;10.20;99.90;;;;;;5011195;28;20068;-85
2022/11/14 11:05:47;;;;;;;12.18;8.65;;;10.20;99.90;;;;;;5029399;28;20122;-88
2022/11/14 11:11:38;;;;;;;13.30;7.82;;;10.30;99.90;;;;;;5036361;28;20130;-86
2022/11/14 11:14:24;;;;;;;10.98;7.57;;;10.40;99.90;;;;;;5006307;28;20045;-85
2022/11/14 11:17:19;;;;;;;10.57;7.60;;;10.50;99.90;;;;;;5011587;28;20049;-85
2022/11/14 11:20:49;;;;;;;10.52;7.65;;;10.50;99.90;;;;;;5032065;28;20040;-87
2022/11/14 11:23:35;;;;;;;8.57;6.18;;;10.60;99.90;;;;;;5044170;28;20052;-85
2022/11/14 11:26:19;;;;;;;9.30;6.35;;;10.80;99.90;;;;;;5047513;28;20178;-85
2022/11/14 11:29:16;;;;;;;8.77;6.32;;;10.90;99.90;;;;;;5033503;28;20091;-86
2022/11/14 11:32:00;;;;;;;;;;;11.00;99.90;;;;;;5017028;28;20051;-86
2022/11/14 11:34:45;;;;;;;9.23;6.15;;;11.10;99.90;;;;;;5026123;28;19924;-85
2022/11/14 11:37:35;;;;;;;6.97;5.25;;;11.10;99.90;;;;;;5028554;28;20152;-85
2022/11/14 11:40:24;;;;;;;8.30;5.75;;;11.20;99.90;;;;;;5029850;28;20102;-85
2022/11/14 11:43:31;;;;;;;9.38;6.13;;;11.30;99.90;;;;;;5031384;28;20140;-86
2022/11/14 11:46:34;;;;;;;9.20;5.97;;;11.30;99.90;;;;;;5028448;28;20036;-86
2022/11/14 11:49:41;;;;;;;8.60;6.00;;;11.40;99.90;;;;;;5028002;28;20087;-85
2022/11/14 11:52:29;;;;;;;7.68;5.30;;;11.40;99.90;;;;;;5024257;28;20044;-85
2022/11/14 11:55:19;;;;;;;7.38;5.38;;;11.40;99.90;;;;;;5028889;28;20048;-86
2022/11/14 11:58:11;;;;;;;6.82;4.72;;;11.40;99.90;;;;;;5021338;28;20566;-86
2022/11/14 12:00:56;;;;;;;7.38;4.72;;;11.40;99.90;;;;;;5020483;28;20064;-87
2022/11/14 12:03:48;;;;;;;7.30;5.05;;;11.40;99.90;;;;;;5013015;28;20049;-85
2022/11/14 12:06:43;;;;;;;7.30;5.25;;;11.30;99.90;;;;;;5024595;28;20179;-86
2022/11/14 12:09:35;;;;;;;5.50;4.50;;;11.30;99.90;;;;;;5019125;28;20132;-86
2022/11/14 12:12:44;;;;;;;7.82;5.00;;;11.30;99.90;;;;;;5012735;28;20072;-85
2022/11/14 12:15:43;;;;;;;5.93;4.70;;;11.40;99.90;;;;;;5031457;28;20055;-84
2022/11/14 12:18:53;;;;;;;6.80;5.22;;;11.40;99.90;;;;;;5012708;28;20213;-85
2022/11/14 12:22:17;;;;;;;6.13;4.75;;;11.40;99.90;;;;;;5031796;28;20064;-85
2022/11/14 12:25:42;;;;;;;7.00;4.72;;;11.40;99.90;;;;;;5032209;28;20111;-85
2022/11/14 12:28:58;;;;;;;7.50;4.80;;;11.50;99.90;;;;;;5033113;28;20043;-84
2022/11/14 12:31:43;;;;;;;8.18;5.63;;;11.50;99.90;;;;;;5034241;28;20263;-85
2022/11/14 12:34:38;;;;;;;8.70;5.15;;;11.60;99.90;;;;;;5002592;28;20048;-85
2022/11/14 12:37:35;;;;;;;7.95;5.50;;;11.60;99.90;;;;;;5025583;28;20120;-85
2022/11/14 12:40:31;;;;;;;5.40;4.53;;;11.60;99.90;;;;;;5029972;28;20049;-85
2022/11/14 12:43:37;;;;;;;8.00;5.47;;;11.60;99.90;;;;;;5049498;28;20043;-85
2022/11/14 12:46:21;;;;;;;7.25;4.88;;;11.70;99.90;;;;;;5011156;28;20532;-85
2022/11/14 12:49:55;;;;;;;7.88;5.38;;;11.70;99.90;;;;;;5015626;28;20481;-86
2022/11/14 12:52:39;;;;;;;6.93;5.10;;;11.70;99.90;;;;;;5028713;28;20053;-86
2022/11/14 12:55:24;;;;;;;7.22;4.97;;;11.70;99.90;;;;;;5022850;28;20048;-86
2022/11/14 12:58:12;;;;;;;6.57;4.88;;;11.70;99.90;;;;;;5014852;28;20068;-85
2022/11/14 13:01:15;;;;;;;9.57;5.85;;;11.70;99.90;;;;;;5017253;28;20040;-85
2022/11/14 13:04:15;;;;;;;6.72;5.32;;;11.70;99.90;;;;;;5025629;28;20461;-85
2022/11/14 13:06:59;;;;;;;7.57;5.03;;;11.70;99.90;;;;;;5027857;28;20059;-85
2022/11/14 13:10:02;;;;;;;6.25;4.68;;;11.70;99.90;;;;;;5026068;28;20162;-85
2022/11/14 13:22:40;;;;;;;7.18;5.38;;;11.90;99.90;;;;;;5027488;28;20043;-84
2022/11/14 13:25:24;;;;;;;8.48;5.20;;;11.90;99.90;;;;;;5034075;28;20116;-84
2022/11/14 13:28:37;;;;;;;8.35;5.25;;;12.00;99.90;;;;;;5020632;28;20167;-84
2022/11/14 13:31:43;;;;;;;6.43;5.10;;;11.90;99.90;;;;;;5027105;28;20114;-84
2022/11/14 13:34:57;;;;;;;7.35;4.95;;;11.90;99.90;;;;;;5034339;28;20083;-85
2022/11/14 13:38:02;;;;;;;7.00;4.70;;;11.80;99.90;;;;;;5029061;28;20036;-84
2022/11/14 13:41:31;;;;;;;6.85;5.05;;;11.70;99.90;;;;;;5033858;28;20512;-84
2022/11/14 13:44:28;;;;;;;6.90;5.00;;;11.70;99.90;;;;;;5033690;28;20071;-83
2022/11/14 13:47:50;;;;;;;6.88;4.82;;;11.60;99.90;;;;;;5022042;28;20130;-84
2022/11/14 13:50:37;;;;;;;8.85;4.88;;;11.50;99.90;;;;;;5042012;28;20087;-84
2022/11/14 13:53:25;;;;;;;7.07;4.80;;;11.40;99.90;;;;;;5030687;28;20090;-85
2022/11/14 13:56:37;;;;;;;6.38;4.82;;;11.30;99.90;;;;;;5017103;28;20460;-84
2022/11/14 14:00:05;;;;;;;9.20;5.03;;;11.20;99.90;;;;;;5020415;28;20055;-85
2022/11/14 14:03:15;;;;;;;7.55;5.05;;;11.30;99.90;;;;;;4996566;28;20102;-84
2022/11/14 14:06:11;;;;;;;6.97;4.93;;;11.20;99.90;;;;;;5023369;28;20563;-84
2022/11/14 14:09:20;;;;;;;10.25;4.72;;;11.20;99.90;;;;;;5025693;28;20164;-84
2022/11/14 14:12:23;;;;;;;9.98;6.90;;;11.10;99.90;;;;;;5030684;28;20082;-85
2022/11/14 14:15:49;;;;;;;6.95;4.95;;;11.00;99.90;;;;;;5028085;28;20048;-84
2022/11/14 14:18:39;;;;;;;9.07;5.50;;;10.90;99.90;;;;;;5026794;28;20052;-84
2022/11/14 14:21:41;;;;;;;7.90;5.43;;;10.90;99.90;;;;;;5028174;28;20067;-84
2022/11/14 14:24:47;;;;;;;6.93;5.20;;;10.80;99.90;;;;;;5029365;28;20527;-85
2022/11/14 14:27:44;;;;;;;8.87;5.70;;;10.80;99.90;;;;;;5025330;28;20047;-84
2022/11/14 14:30:29;;;;;;;6.85;5.05;;;10.80;99.90;;;;;;5032739;28;20328;-85
2022/11/14 14:33:14;;;;;;;7.53;4.90;;;10.80;99.90;;;;;;5023172;28;20049;-85
2022/11/14 14:35:59;;;;;;;8.05;4.53;;;10.90;99.90;;;;;;5036830;28;20456;-84
2022/11/14 14:38:44;;;;;;;6.22;4.65;;;10.90;99.90;;;;;;5013969;28;20445;-85
2022/11/14 14:41:31;;;;;;;6.72;4.80;;;11.00;99.90;;;;;;5016176;28;20099;-85
2022/11/14 14:44:22;;;;;;;6.20;4.47;;;10.90;99.90;;;;;;4999957;28;20152;-85
2022/11/14 14:47:26;;;;;;;6.95;4.72;;;10.90;99.90;;;;;;5045394;28;20049;-85
2022/11/14 14:50:20;;;;;;;7.72;5.18;;;10.90;99.90;;;;;;5007421;28;20052;-86